sensor_id;sensor_type;location;lat;lon;timestamp;P1;durP1;ratioP1;P2;durP2;ratioP2
58472;SDS011;44775;51.564;5.460;2023-03-01T00:01:14;15.30;;;11.88;;
58472;SDS011;44775;51.564;5.460;2023-03-01T00:03:47;15.55;;;12.38;;
58472;SDS011;44775;51.564;5.460;2023-03-01T00:06:12;16.25;;;11.85;;
58472;SDS011;44775;51.564;5.460;2023-03-01T00:08:38;18.02;;;13.15;;
58472;SDS011;44775;51.564;5.460;2023-03-01T00:11:05;18.05;;;12.38;;
58472;SDS011;44775;51.564;5.460;2023-03-01T00:13:32;16.00;;;12.50;;
58472;SDS011;44775;51.564;5.460;2023-03-01T00:15:58;17.52;;;12.05;;
58472;SDS011;44775;51.564;5.460;2023-03-01T00:18:24;18.63;;;12.60;;
58472;SDS011;44775;51.564;5.460;2023-03-01T00:20:52;19.95;;;12.45;;
58472;SDS011;44775;51.564;5.460;2023-03-01T00:23:19;17.30;;;12.60;;
58472;SDS011;44775;51.564;5.460;2023-03-01T00:25:45;16.98;;;12.48;;
58472;SDS011;44775;51.564;5.460;2023-03-01T00:28:10;16.90;;;12.10;;
58472;SDS011;44775;51.564;5.460;2023-03-01T00:30:35;19.98;;;12.43;;
58472;SDS011;44775;51.564;5.460;2023-03-01T00:33:01;15.90;;;12.52;;
58472;SDS011;44775;51.564;5.460;2023-03-01T00:35:26;15.65;;;12.02;;
58472;SDS011;44775;51.564;5.460;2023-03-01T00:37:51;18.02;;;12.80;;
58472;SDS011;44775;51.564;5.460;2023-03-01T00:40:23;18.75;;;12.88;;
58472;SDS011;44775;51.564;5.460;2023-03-01T00:42:55;18.48;;;13.10;;
58472;SDS011;44775;51.564;5.460;2023-03-01T00:45:21;18.67;;;12.45;;
58472;SDS011;44775;51.564;5.460;2023-03-01T00:47:46;15.52;;;12.75;;
58472;SDS011;44775;51.564;5.460;2023-03-01T00:50:13;18.17;;;12.77;;
58472;SDS011;44775;51.564;5.460;2023-03-01T00:52:38;17.65;;;12.57;;
58472;SDS011;44775;51.564;5.460;2023-03-01T00:55:04;19.55;;;12.70;;
58472;SDS011;44775;51.564;5.460;2023-03-01T00:57:30;18.45;;;13.05;;
58472;SDS011;44775;51.564;5.460;2023-03-01T00:59:55;16.67;;;12.50;;
58472;SDS011;44775;51.564;5.460;2023-03-01T01:02:21;16.33;;;12.00;;
58472;SDS011;44775;51.564;5.460;2023-03-01T01:04:47;17.73;;;12.25;;
58472;SDS011;44775;51.564;5.460;2023-03-01T01:07:12;16.73;;;12.20;;
58472;SDS011;44775;51.564;5.460;2023-03-01T01:09:38;18.20;;;11.60;;
58472;SDS011;44775;51.564;5.460;2023-03-01T01:12:04;18.73;;;13.20;;
58472;SDS011;44775;51.564;5.460;2023-03-01T01:14:30;16.13;;;11.70;;
58472;SDS011;44775;51.564;5.460;2023-03-01T01:16:55;15.68;;;11.95;;
58472;SDS011;44775;51.564;5.460;2023-03-01T01:19:21;15.75;;;11.90;;
58472;SDS011;44775;51.564;5.460;2023-03-01T01:21:47;17.23;;;12.60;;
58472;SDS011;44775;51.564;5.460;2023-03-01T01:24:13;18.75;;;13.05;;
58472;SDS011;44775;51.564;5.460;2023-03-01T01:26:39;18.88;;;12.82;;
58472;SDS011;44775;51.564;5.460;2023-03-01T01:29:04;17.60;;;12.60;;
58472;SDS011;44775;51.564;5.460;2023-03-01T01:31:31;17.25;;;12.70;;
58472;SDS011;44775;51.564;5.460;2023-03-01T01:33:57;17.10;;;11.95;;
58472;SDS011;44775;51.564;5.460;2023-03-01T01:36:24;14.88;;;11.27;;
58472;SDS011;44775;51.564;5.460;2023-03-01T01:38:49;16.40;;;11.48;;
58472;SDS011;44775;51.564;5.460;2023-03-01T01:41:15;17.92;;;11.93;;
58472;SDS011;44775;51.564;5.460;2023-03-01T01:43:42;17.48;;;11.27;;
58472;SDS011;44775;51.564;5.460;2023-03-01T01:46:30;15.80;;;12.20;;
58472;SDS011;44775;51.564;5.460;2023-03-01T01:49:01;17.58;;;11.90;;
58472;SDS011;44775;51.564;5.460;2023-03-01T01:51:35;18.40;;;12.32;;
58472;SDS011;44775;51.564;5.460;2023-03-01T01:54:13;16.60;;;11.77;;
58472;SDS011;44775;51.564;5.460;2023-03-01T01:56:44;19.55;;;11.95;;
58472;SDS011;44775;51.564;5.460;2023-03-01T01:59:16;17.85;;;11.93;;
58472;SDS011;44775;51.564;5.460;2023-03-01T02:01:42;15.20;;;11.40;;
58472;SDS011;44775;51.564;5.460;2023-03-01T02:04:08;17.75;;;12.18;;
58472;SDS011;44775;51.564;5.460;2023-03-01T02:06:36;16.23;;;11.50;;
58472;SDS011;44775;51.564;5.460;2023-03-01T02:09:05;16.67;;;10.93;;
58472;SDS011;44775;51.564;5.460;2023-03-01T02:11:33;16.45;;;11.95;;
58472;SDS011;44775;51.564;5.460;2023-03-01T02:14:02;15.68;;;11.00;;
58472;SDS011;44775;51.564;5.460;2023-03-01T02:16:28;17.05;;;12.48;;
58472;SDS011;44775;51.564;5.460;2023-03-01T02:18:53;18.40;;;12.52;;
58472;SDS011;44775;51.564;5.460;2023-03-01T02:21:23;16.70;;;12.60;;
58472;SDS011;44775;51.564;5.460;2023-03-01T02:23:55;17.25;;;12.23;;
58472;SDS011;44775;51.564;5.460;2023-03-01T02:29:06;17.17;;;12.13;;
58472;SDS011;44775;51.564;5.460;2023-03-01T02:31:32;16.60;;;12.38;;
58472;SDS011;44775;51.564;5.460;2023-03-01T02:34:06;16.25;;;11.60;;
58472;SDS011;44775;51.564;5.460;2023-03-01T02:36:35;17.75;;;12.45;;
58472;SDS011;44775;51.564;5.460;2023-03-01T02:41:30;17.05;;;11.48;;
58472;SDS011;44775;51.564;5.460;2023-03-01T02:43:59;16.90;;;11.95;;
58472;SDS011;44775;51.564;5.460;2023-03-01T02:46:25;17.63;;;12.15;;
58472;SDS011;44775;51.564;5.460;2023-03-01T02:48:52;16.90;;;11.25;;
58472;SDS011;44775;51.564;5.460;2023-03-01T02:54:15;16.35;;;11.77;;
58472;SDS011;44775;51.564;5.460;2023-03-01T02:56:42;15.55;;;10.82;;
58472;SDS011;44775;51.564;5.460;2023-03-01T02:59:13;14.80;;;10.00;;
58472;SDS011;44775;51.564;5.460;2023-03-01T03:01:40;16.35;;;10.77;;
58472;SDS011;44775;51.564;5.460;2023-03-01T03:04:07;18.70;;;11.15;;
58472;SDS011;44775;51.564;5.460;2023-03-01T03:06:35;16.10;;;10.60;;
58472;SDS011;44775;51.564;5.460;2023-03-01T03:09:01;16.17;;;10.75;;
58472;SDS011;44775;51.564;5.460;2023-03-01T03:11:26;15.85;;;10.40;;
58472;SDS011;44775;51.564;5.460;2023-03-01T03:13:52;14.68;;;10.77;;
58472;SDS011;44775;51.564;5.460;2023-03-01T03:16:18;15.13;;;10.57;;
58472;SDS011;44775;51.564;5.460;2023-03-01T03:18:44;15.15;;;10.50;;
58472;SDS011;44775;51.564;5.460;2023-03-01T03:21:10;15.35;;;10.43;;
58472;SDS011;44775;51.564;5.460;2023-03-01T03:23:36;16.10;;;10.85;;
58472;SDS011;44775;51.564;5.460;2023-03-01T03:26:03;13.90;;;9.80;;
58472;SDS011;44775;51.564;5.460;2023-03-01T03:28:29;14.18;;;10.00;;
58472;SDS011;44775;51.564;5.460;2023-03-01T03:30:56;15.73;;;10.75;;
58472;SDS011;44775;51.564;5.460;2023-03-01T03:33:21;13.23;;;9.82;;
58472;SDS011;44775;51.564;5.460;2023-03-01T03:35:47;14.23;;;10.32;;
58472;SDS011;44775;51.564;5.460;2023-03-01T03:38:14;12.68;;;9.07;;
58472;SDS011;44775;51.564;5.460;2023-03-01T03:43:09;13.32;;;9.18;;
58472;SDS011;44775;51.564;5.460;2023-03-01T03:45:37;11.38;;;9.15;;
58472;SDS011;44775;51.564;5.460;2023-03-01T03:48:03;14.10;;;10.07;;
58472;SDS011;44775;51.564;5.460;2023-03-01T03:50:29;17.45;;;9.88;;
58472;SDS011;44775;51.564;5.460;2023-03-01T03:52:55;15.02;;;9.43;;
58472;SDS011;44775;51.564;5.460;2023-03-01T03:55:21;13.75;;;9.07;;
58472;SDS011;44775;51.564;5.460;2023-03-01T03:57:47;14.35;;;9.20;;
58472;SDS011;44775;51.564;5.460;2023-03-01T04:00:17;13.02;;;9.55;;
58472;SDS011;44775;51.564;5.460;2023-03-01T04:02:45;14.25;;;9.95;;
58472;SDS011;44775;51.564;5.460;2023-03-01T04:05:12;13.75;;;9.52;;
58472;SDS011;44775;51.564;5.460;2023-03-01T04:07:42;16.17;;;10.20;;
58472;SDS011;44775;51.564;5.460;2023-03-01T04:10:09;14.80;;;10.48;;
58472;SDS011;44775;51.564;5.460;2023-03-01T04:12:37;14.38;;;10.18;;
58472;SDS011;44775;51.564;5.460;2023-03-01T04:15:03;14.95;;;10.07;;
58472;SDS011;44775;51.564;5.460;2023-03-01T04:17:38;13.18;;;9.93;;
58472;SDS011;44775;51.564;5.460;2023-03-01T04:20:04;13.85;;;9.77;;
58472;SDS011;44775;51.564;5.460;2023-03-01T04:22:30;13.88;;;10.07;;
58472;SDS011;44775;51.564;5.460;2023-03-01T04:24:57;13.20;;;10.15;;
58472;SDS011;44775;51.564;5.460;2023-03-01T04:27:23;16.98;;;10.48;;
58472;SDS011;44775;51.564;5.460;2023-03-01T04:29:48;14.25;;;10.57;;
58472;SDS011;44775;51.564;5.460;2023-03-01T04:32:13;16.88;;;10.43;;
58472;SDS011;44775;51.564;5.460;2023-03-01T04:34:41;15.00;;;10.25;;
58472;SDS011;44775;51.564;5.460;2023-03-01T04:37:06;15.27;;;10.15;;
58472;SDS011;44775;51.564;5.460;2023-03-01T04:39:31;17.70;;;10.80;;
58472;SDS011;44775;51.564;5.460;2023-03-01T04:41:57;14.15;;;11.05;;
58472;SDS011;44775;51.564;5.460;2023-03-01T04:44:22;14.55;;;10.90;;
58472;SDS011;44775;51.564;5.460;2023-03-01T04:46:48;15.38;;;10.95;;
58472;SDS011;44775;51.564;5.460;2023-03-01T04:49:15;16.20;;;11.15;;
58472;SDS011;44775;51.564;5.460;2023-03-01T04:51:41;14.52;;;11.00;;
58472;SDS011;44775;51.564;5.460;2023-03-01T04:54:06;14.07;;;9.88;;
58472;SDS011;44775;51.564;5.460;2023-03-01T04:56:33;14.63;;;10.10;;
58472;SDS011;44775;51.564;5.460;2023-03-01T04:58:59;14.90;;;10.63;;
58472;SDS011;44775;51.564;5.460;2023-03-01T05:01:25;16.23;;;10.18;;
58472;SDS011;44775;51.564;5.460;2023-03-01T05:03:51;16.63;;;10.80;;
58472;SDS011;44775;51.564;5.460;2023-03-01T05:06:17;16.83;;;10.95;;
58472;SDS011;44775;51.564;5.460;2023-03-01T05:08:43;15.27;;;10.38;;
58472;SDS011;44775;51.564;5.460;2023-03-01T05:11:09;14.27;;;10.73;;
58472;SDS011;44775;51.564;5.460;2023-03-01T05:13:36;15.50;;;10.65;;
58472;SDS011;44775;51.564;5.460;2023-03-01T05:16:02;15.65;;;11.45;;
58472;SDS011;44775;51.564;5.460;2023-03-01T05:18:31;16.10;;;11.60;;
58472;SDS011;44775;51.564;5.460;2023-03-01T05:23:41;16.73;;;11.15;;
58472;SDS011;44775;51.564;5.460;2023-03-01T05:26:07;15.52;;;11.65;;
58472;SDS011;44775;51.564;5.460;2023-03-01T05:28:33;17.25;;;11.43;;
58472;SDS011;44775;51.564;5.460;2023-03-01T05:30:59;17.17;;;11.00;;
58472;SDS011;44775;51.564;5.460;2023-03-01T05:33:24;16.73;;;11.40;;
58472;SDS011;44775;51.564;5.460;2023-03-01T05:35:51;16.23;;;11.43;;
58472;SDS011;44775;51.564;5.460;2023-03-01T05:38:17;16.63;;;11.27;;
58472;SDS011;44775;51.564;5.460;2023-03-01T05:40:44;15.25;;;11.00;;
58472;SDS011;44775;51.564;5.460;2023-03-01T05:43:11;17.95;;;11.70;;
58472;SDS011;44775;51.564;5.460;2023-03-01T05:45:38;17.67;;;11.68;;
58472;SDS011;44775;51.564;5.460;2023-03-01T05:48:04;18.25;;;11.85;;
58472;SDS011;44775;51.564;5.460;2023-03-01T05:50:35;17.02;;;12.10;;
58472;SDS011;44775;51.564;5.460;2023-03-01T05:53:18;16.50;;;11.65;;
58472;SDS011;44775;51.564;5.460;2023-03-01T05:55:46;18.27;;;11.85;;
58472;SDS011;44775;51.564;5.460;2023-03-01T05:58:16;18.52;;;12.48;;
58472;SDS011;44775;51.564;5.460;2023-03-01T06:00:43;18.42;;;11.88;;
58472;SDS011;44775;51.564;5.460;2023-03-01T06:03:10;19.60;;;12.05;;
58472;SDS011;44775;51.564;5.460;2023-03-01T06:05:37;19.30;;;12.35;;
58472;SDS011;44775;51.564;5.460;2023-03-01T06:08:02;17.88;;;12.55;;
58472;SDS011;44775;51.564;5.460;2023-03-01T06:10:28;18.63;;;11.75;;
58472;SDS011;44775;51.564;5.460;2023-03-01T06:12:53;18.27;;;12.27;;
58472;SDS011;44775;51.564;5.460;2023-03-01T06:15:20;18.30;;;12.90;;
58472;SDS011;44775;51.564;5.460;2023-03-01T06:17:46;19.52;;;12.85;;
58472;SDS011;44775;51.564;5.460;2023-03-01T06:20:19;22.77;;;12.25;;
58472;SDS011;44775;51.564;5.460;2023-03-01T06:22:46;17.95;;;12.43;;
58472;SDS011;44775;51.564;5.460;2023-03-01T06:25:12;17.65;;;12.30;;
58472;SDS011;44775;51.564;5.460;2023-03-01T06:27:39;16.58;;;11.45;;
58472;SDS011;44775;51.564;5.460;2023-03-01T06:30:05;18.05;;;12.38;;
58472;SDS011;44775;51.564;5.460;2023-03-01T06:32:31;20.40;;;12.93;;
58472;SDS011;44775;51.564;5.460;2023-03-01T06:34:57;19.30;;;12.68;;
58472;SDS011;44775;51.564;5.460;2023-03-01T06:37:23;20.20;;;13.00;;
58472;SDS011;44775;51.564;5.460;2023-03-01T06:39:49;19.27;;;11.98;;
58472;SDS011;44775;51.564;5.460;2023-03-01T06:42:14;21.58;;;13.15;;
58472;SDS011;44775;51.564;5.460;2023-03-01T06:44:40;18.17;;;11.43;;
58472;SDS011;44775;51.564;5.460;2023-03-01T06:47:05;18.65;;;12.43;;
58472;SDS011;44775;51.564;5.460;2023-03-01T06:49:30;20.60;;;12.57;;
58472;SDS011;44775;51.564;5.460;2023-03-01T06:51:56;20.05;;;13.30;;
58472;SDS011;44775;51.564;5.460;2023-03-01T06:54:21;18.15;;;11.75;;
58472;SDS011;44775;51.564;5.460;2023-03-01T06:56:48;20.00;;;12.57;;
58472;SDS011;44775;51.564;5.460;2023-03-01T06:59:14;21.05;;;13.43;;
58472;SDS011;44775;51.564;5.460;2023-03-01T07:01:40;21.45;;;13.32;;
58472;SDS011;44775;51.564;5.460;2023-03-01T07:04:05;21.48;;;12.68;;
58472;SDS011;44775;51.564;5.460;2023-03-01T07:06:31;23.48;;;14.50;;
58472;SDS011;44775;51.564;5.460;2023-03-01T07:08:56;24.05;;;15.52;;
58472;SDS011;44775;51.564;5.460;2023-03-01T07:11:22;21.75;;;14.55;;
58472;SDS011;44775;51.564;5.460;2023-03-01T07:13:48;21.05;;;13.88;;
58472;SDS011;44775;51.564;5.460;2023-03-01T07:16:13;22.73;;;13.73;;
58472;SDS011;44775;51.564;5.460;2023-03-01T07:18:39;23.92;;;13.43;;
58472;SDS011;44775;51.564;5.460;2023-03-01T07:21:08;19.58;;;12.85;;
58472;SDS011;44775;51.564;5.460;2023-03-01T07:23:36;18.80;;;12.55;;
58472;SDS011;44775;51.564;5.460;2023-03-01T07:26:02;19.67;;;12.93;;
58472;SDS011;44775;51.564;5.460;2023-03-01T07:28:27;19.15;;;12.32;;
58472;SDS011;44775;51.564;5.460;2023-03-01T07:30:52;18.10;;;12.73;;
58472;SDS011;44775;51.564;5.460;2023-03-01T07:33:18;16.90;;;11.68;;
58472;SDS011;44775;51.564;5.460;2023-03-01T07:35:44;18.50;;;11.90;;
58472;SDS011;44775;51.564;5.460;2023-03-01T07:38:09;18.52;;;12.32;;
58472;SDS011;44775;51.564;5.460;2023-03-01T07:40:34;21.10;;;12.32;;
58472;SDS011;44775;51.564;5.460;2023-03-01T07:43:00;18.17;;;12.45;;
58472;SDS011;44775;51.564;5.460;2023-03-01T07:45:29;19.95;;;12.23;;
58472;SDS011;44775;51.564;5.460;2023-03-01T07:47:54;16.80;;;11.45;;
58472;SDS011;44775;51.564;5.460;2023-03-01T07:50:20;17.15;;;11.80;;
58472;SDS011;44775;51.564;5.460;2023-03-01T07:52:46;16.73;;;11.43;;
58472;SDS011;44775;51.564;5.460;2023-03-01T07:55:13;18.15;;;11.85;;
58472;SDS011;44775;51.564;5.460;2023-03-01T07:57:39;17.52;;;11.20;;
58472;SDS011;44775;51.564;5.460;2023-03-01T08:00:04;19.33;;;12.02;;
58472;SDS011;44775;51.564;5.460;2023-03-01T08:02:31;15.50;;;9.90;;
58472;SDS011;44775;51.564;5.460;2023-03-01T08:04:56;16.88;;;11.40;;
58472;SDS011;44775;51.564;5.460;2023-03-01T08:07:21;16.88;;;11.07;;
58472;SDS011;44775;51.564;5.460;2023-03-01T08:09:47;16.92;;;11.32;;
58472;SDS011;44775;51.564;5.460;2023-03-01T08:12:12;14.45;;;8.95;;
58472;SDS011;44775;51.564;5.460;2023-03-01T08:14:37;13.25;;;10.32;;
58472;SDS011;44775;51.564;5.460;2023-03-01T08:17:03;16.60;;;10.68;;
58472;SDS011;44775;51.564;5.460;2023-03-01T08:19:28;14.68;;;9.90;;
58472;SDS011;44775;51.564;5.460;2023-03-01T08:21:54;13.70;;;9.98;;
58472;SDS011;44775;51.564;5.460;2023-03-01T08:24:19;13.00;;;8.75;;
58472;SDS011;44775;51.564;5.460;2023-03-01T08:26:45;11.88;;;8.45;;
58472;SDS011;44775;51.564;5.460;2023-03-01T08:29:10;14.32;;;9.93;;
58472;SDS011;44775;51.564;5.460;2023-03-01T08:31:36;14.70;;;10.55;;
58472;SDS011;44775;51.564;5.460;2023-03-01T08:34:05;12.77;;;9.75;;
58472;SDS011;44775;51.564;5.460;2023-03-01T08:36:36;15.40;;;10.00;;
58472;SDS011;44775;51.564;5.460;2023-03-01T08:39:05;16.75;;;9.90;;
58472;SDS011;44775;51.564;5.460;2023-03-01T08:41:31;12.18;;;9.55;;
58472;SDS011;44775;51.564;5.460;2023-03-01T08:43:57;9.43;;;6.28;;
58472;SDS011;44775;51.564;5.460;2023-03-01T08:46:28;10.30;;;7.15;;
58472;SDS011;44775;51.564;5.460;2023-03-01T08:48:55;12.68;;;8.98;;
58472;SDS011;44775;51.564;5.460;2023-03-01T08:51:21;9.98;;;6.97;;
58472;SDS011;44775;51.564;5.460;2023-03-01T08:53:47;11.77;;;8.07;;
58472;SDS011;44775;51.564;5.460;2023-03-01T08:56:13;11.20;;;8.65;;
58472;SDS011;44775;51.564;5.460;2023-03-01T08:58:38;11.55;;;8.15;;
58472;SDS011;44775;51.564;5.460;2023-03-01T09:01:08;10.75;;;7.60;;
58472;SDS011;44775;51.564;5.460;2023-03-01T09:03:34;11.73;;;8.43;;
58472;SDS011;44775;51.564;5.460;2023-03-01T09:06:00;12.43;;;8.50;;
58472;SDS011;44775;51.564;5.460;2023-03-01T09:08:27;12.00;;;8.77;;
58472;SDS011;44775;51.564;5.460;2023-03-01T09:10:52;12.85;;;9.00;;
58472;SDS011;44775;51.564;5.460;2023-03-01T09:13:18;12.45;;;8.43;;
58472;SDS011;44775;51.564;5.460;2023-03-01T09:15:43;11.02;;;8.38;;
58472;SDS011;44775;51.564;5.460;2023-03-01T09:18:08;11.13;;;8.20;;
58472;SDS011;44775;51.564;5.460;2023-03-01T09:20:33;9.63;;;7.22;;
58472;SDS011;44775;51.564;5.460;2023-03-01T09:22:59;12.38;;;8.18;;
58472;SDS011;44775;51.564;5.460;2023-03-01T09:25:24;9.50;;;7.45;;
58472;SDS011;44775;51.564;5.460;2023-03-01T09:27:53;11.65;;;8.77;;
58472;SDS011;44775;51.564;5.460;2023-03-01T09:30:19;11.88;;;7.68;;
58472;SDS011;44775;51.564;5.460;2023-03-01T09:32:45;11.20;;;7.53;;
58472;SDS011;44775;51.564;5.460;2023-03-01T09:35:11;9.55;;;7.32;;
58472;SDS011;44775;51.564;5.460;2023-03-01T09:37:37;11.05;;;7.93;;
58472;SDS011;44775;51.564;5.460;2023-03-01T09:40:03;12.18;;;8.63;;
58472;SDS011;44775;51.564;5.460;2023-03-01T09:42:32;12.27;;;9.02;;
58472;SDS011;44775;51.564;5.460;2023-03-01T09:45:33;9.18;;;6.57;;
58472;SDS011;44775;51.564;5.460;2023-03-01T09:48:03;11.10;;;7.75;;
58472;SDS011;44775;51.564;5.460;2023-03-01T09:50:33;11.27;;;8.27;;
58472;SDS011;44775;51.564;5.460;2023-03-01T09:53:10;10.35;;;7.75;;
58472;SDS011;44775;51.564;5.460;2023-03-01T09:55:43;11.45;;;7.90;;
58472;SDS011;44775;51.564;5.460;2023-03-01T10:01:34;9.35;;;7.10;;
58472;SDS011;44775;51.564;5.460;2023-03-01T10:04:19;10.93;;;7.50;;
58472;SDS011;44775;51.564;5.460;2023-03-01T10:06:56;9.50;;;7.18;;
58472;SDS011;44775;51.564;5.460;2023-03-01T10:09:29;8.88;;;7.10;;
58472;SDS011;44775;51.564;5.460;2023-03-01T10:11:58;9.35;;;6.70;;
58472;SDS011;44775;51.564;5.460;2023-03-01T10:22:49;10.00;;;6.30;;
58472;SDS011;44775;51.564;5.460;2023-03-01T10:28:17;8.75;;;7.50;;
58472;SDS011;44775;51.564;5.460;2023-03-01T10:30:49;11.73;;;8.68;;
58472;SDS011;44775;51.564;5.460;2023-03-01T10:35:45;9.02;;;6.13;;
58472;SDS011;44775;51.564;5.460;2023-03-01T10:38:12;11.13;;;9.20;;
58472;SDS011;44775;51.564;5.460;2023-03-01T10:43:23;9.80;;;6.63;;
58472;SDS011;44775;51.564;5.460;2023-03-01T10:45:51;9.90;;;6.07;;
58472;SDS011;44775;51.564;5.460;2023-03-01T10:48:17;10.45;;;8.13;;
58472;SDS011;44775;51.564;5.460;2023-03-01T10:50:49;10.85;;;7.68;;
58472;SDS011;44775;51.564;5.460;2023-03-01T10:56:11;9.10;;;6.80;;
58472;SDS011;44775;51.564;5.460;2023-03-01T10:58:39;10.23;;;7.72;;
58472;SDS011;44775;51.564;5.460;2023-03-01T11:03:40;12.40;;;8.02;;
58472;SDS011;44775;51.564;5.460;2023-03-01T11:08:41;11.55;;;8.80;;
58472;SDS011;44775;51.564;5.460;2023-03-01T11:13:34;11.65;;;7.78;;
58472;SDS011;44775;51.564;5.460;2023-03-01T11:16:05;11.93;;;8.90;;
58472;SDS011;44775;51.564;5.460;2023-03-01T11:18:35;13.18;;;8.82;;
58472;SDS011;44775;51.564;5.460;2023-03-01T11:21:00;10.45;;;7.90;;
58472;SDS011;44775;51.564;5.460;2023-03-01T11:23:28;9.98;;;8.65;;
58472;SDS011;44775;51.564;5.460;2023-03-01T11:25:56;10.63;;;8.32;;
58472;SDS011;44775;51.564;5.460;2023-03-01T11:28:24;12.43;;;9.30;;
58472;SDS011;44775;51.564;5.460;2023-03-01T11:31:05;11.13;;;8.37;;
58472;SDS011;44775;51.564;5.460;2023-03-01T11:33:44;8.23;;;7.00;;
58472;SDS011;44775;51.564;5.460;2023-03-01T11:36:23;11.75;;;8.68;;
58472;SDS011;44775;51.564;5.460;2023-03-01T11:42:05;9.63;;;7.85;;
58472;SDS011;44775;51.564;5.460;2023-03-01T11:44:33;11.25;;;8.23;;
58472;SDS011;44775;51.564;5.460;2023-03-01T12:03:33;9.80;;;7.97;;
58472;SDS011;44775;51.564;5.460;2023-03-01T12:19:45;8.25;;;7.10;;
58472;SDS011;44775;51.564;5.460;2023-03-01T12:22:35;9.43;;;7.78;;
58472;SDS011;44775;51.564;5.460;2023-03-01T12:25:15;8.18;;;6.97;;
58472;SDS011;44775;51.564;5.460;2023-03-01T12:31:25;7.82;;;6.50;;
58472;SDS011;44775;51.564;5.460;2023-03-01T12:39:35;10.68;;;7.47;;
58472;SDS011;44775;51.564;5.460;2023-03-01T12:50:52;9.50;;;7.82;;
58472;SDS011;44775;51.564;5.460;2023-03-01T12:53:30;9.77;;;6.32;;
58472;SDS011;44775;51.564;5.460;2023-03-01T12:56:00;11.50;;;7.53;;
58472;SDS011;44775;51.564;5.460;2023-03-01T12:58:35;9.57;;;6.45;;
58472;SDS011;44775;51.564;5.460;2023-03-01T13:06:54;8.50;;;6.53;;
58472;SDS011;44775;51.564;5.460;2023-03-01T13:17:46;9.10;;;6.75;;
58472;SDS011;44775;51.564;5.460;2023-03-01T13:20:13;8.43;;;7.50;;
58472;SDS011;44775;51.564;5.460;2023-03-01T13:22:44;8.43;;;7.20;;
58472;SDS011;44775;51.564;5.460;2023-03-01T13:25:12;8.57;;;6.38;;
58472;SDS011;44775;51.564;5.460;2023-03-01T13:27:38;8.55;;;6.90;;
58472;SDS011;44775;51.564;5.460;2023-03-01T13:30:04;11.02;;;8.43;;
58472;SDS011;44775;51.564;5.460;2023-03-01T13:33:10;7.25;;;5.47;;
58472;SDS011;44775;51.564;5.460;2023-03-01T13:35:53;11.15;;;8.00;;
58472;SDS011;44775;51.564;5.460;2023-03-01T13:41:15;10.50;;;7.88;;
58472;SDS011;44775;51.564;5.460;2023-03-01T13:44:01;10.27;;;6.25;;
58472;SDS011;44775;51.564;5.460;2023-03-01T13:46:36;9.93;;;6.55;;
58472;SDS011;44775;51.564;5.460;2023-03-01T13:49:02;7.95;;;6.75;;
58472;SDS011;44775;51.564;5.460;2023-03-01T13:51:27;6.68;;;5.70;;
58472;SDS011;44775;51.564;5.460;2023-03-01T13:53:53;10.18;;;5.47;;
58472;SDS011;44775;51.564;5.460;2023-03-01T13:56:21;7.70;;;5.82;;
58472;SDS011;44775;51.564;5.460;2023-03-01T13:58:55;10.63;;;6.40;;
58472;SDS011;44775;51.564;5.460;2023-03-01T14:01:26;8.40;;;6.30;;
58472;SDS011;44775;51.564;5.460;2023-03-01T14:03:54;11.45;;;7.47;;
58472;SDS011;44775;51.564;5.460;2023-03-01T14:06:21;9.00;;;6.35;;
58472;SDS011;44775;51.564;5.460;2023-03-01T14:08:49;5.75;;;4.93;;
58472;SDS011;44775;51.564;5.460;2023-03-01T14:11:33;9.40;;;7.40;;
58472;SDS011;44775;51.564;5.460;2023-03-01T14:19:43;11.25;;;7.55;;
58472;SDS011;44775;51.564;5.460;2023-03-01T14:27:45;8.60;;;7.47;;
58472;SDS011;44775;51.564;5.460;2023-03-01T14:30:21;9.27;;;7.30;;
58472;SDS011;44775;51.564;5.460;2023-03-01T14:32:56;10.05;;;6.95;;
58472;SDS011;44775;51.564;5.460;2023-03-01T14:35:25;9.40;;;7.55;;
58472;SDS011;44775;51.564;5.460;2023-03-01T14:37:52;10.27;;;7.18;;
58472;SDS011;44775;51.564;5.460;2023-03-01T14:40:31;12.65;;;8.30;;
58472;SDS011;44775;51.564;5.460;2023-03-01T14:42:59;8.93;;;6.80;;
58472;SDS011;44775;51.564;5.460;2023-03-01T14:45:28;9.63;;;7.57;;
58472;SDS011;44775;51.564;5.460;2023-03-01T14:47:55;8.13;;;6.38;;
58472;SDS011;44775;51.564;5.460;2023-03-01T14:50:27;8.07;;;5.88;;
58472;SDS011;44775;51.564;5.460;2023-03-01T14:52:56;7.00;;;5.97;;
58472;SDS011;44775;51.564;5.460;2023-03-01T14:58:06;8.50;;;6.35;;
58472;SDS011;44775;51.564;5.460;2023-03-01T15:00:36;10.70;;;7.78;;
58472;SDS011;44775;51.564;5.460;2023-03-01T15:03:11;12.88;;;8.48;;
58472;SDS011;44775;51.564;5.460;2023-03-01T15:05:42;12.48;;;8.70;;
58472;SDS011;44775;51.564;5.460;2023-03-01T15:08:11;11.05;;;8.32;;
58472;SDS011;44775;51.564;5.460;2023-03-01T15:10:54;12.82;;;9.05;;
58472;SDS011;44775;51.564;5.460;2023-03-01T15:13:29;12.88;;;8.43;;
58472;SDS011;44775;51.564;5.460;2023-03-01T15:18:32;10.63;;;6.88;;
58472;SDS011;44775;51.564;5.460;2023-03-01T15:23:47;10.18;;;7.60;;
58472;SDS011;44775;51.564;5.460;2023-03-01T15:26:25;11.20;;;8.27;;
58472;SDS011;44775;51.564;5.460;2023-03-01T15:28:54;9.77;;;7.18;;
58472;SDS011;44775;51.564;5.460;2023-03-01T15:31:32;12.18;;;9.23;;
58472;SDS011;44775;51.564;5.460;2023-03-01T15:34:22;11.07;;;7.45;;
58472;SDS011;44775;51.564;5.460;2023-03-01T15:36:55;11.85;;;8.07;;
58472;SDS011;44775;51.564;5.460;2023-03-01T15:41:49;12.37;;;8.77;;
58472;SDS011;44775;51.564;5.460;2023-03-01T15:44:15;11.55;;;7.38;;
58472;SDS011;44775;51.564;5.460;2023-03-01T15:46:45;12.93;;;8.20;;
58472;SDS011;44775;51.564;5.460;2023-03-01T15:49:22;13.82;;;9.27;;
58472;SDS011;44775;51.564;5.460;2023-03-01T15:52:10;12.05;;;8.55;;
58472;SDS011;44775;51.564;5.460;2023-03-01T15:54:40;13.73;;;8.95;;
58472;SDS011;44775;51.564;5.460;2023-03-01T15:57:10;13.85;;;10.45;;
58472;SDS011;44775;51.564;5.460;2023-03-01T15:59:39;11.70;;;8.80;;
58472;SDS011;44775;51.564;5.460;2023-03-01T16:02:09;15.93;;;10.32;;
58472;SDS011;44775;51.564;5.460;2023-03-01T16:04:37;14.98;;;9.75;;
58472;SDS011;44775;51.564;5.460;2023-03-01T16:07:03;13.38;;;9.43;;
58472;SDS011;44775;51.564;5.460;2023-03-01T16:09:28;11.25;;;8.30;;
58472;SDS011;44775;51.564;5.460;2023-03-01T16:11:54;13.93;;;9.80;;
58472;SDS011;44775;51.564;5.460;2023-03-01T16:14:19;14.90;;;9.60;;
58472;SDS011;44775;51.564;5.460;2023-03-01T16:16:45;13.65;;;9.45;;
58472;SDS011;44775;51.564;5.460;2023-03-01T16:19:12;14.45;;;9.07;;
58472;SDS011;44775;51.564;5.460;2023-03-01T16:21:38;14.23;;;10.38;;
58472;SDS011;44775;51.564;5.460;2023-03-01T16:24:04;15.82;;;9.80;;
58472;SDS011;44775;51.564;5.460;2023-03-01T16:26:29;12.65;;;9.60;;
58472;SDS011;44775;51.564;5.460;2023-03-01T16:28:55;13.52;;;9.00;;
58472;SDS011;44775;51.564;5.460;2023-03-01T16:31:22;14.60;;;10.20;;
58472;SDS011;44775;51.564;5.460;2023-03-01T16:33:47;15.15;;;9.55;;
58472;SDS011;44775;51.564;5.460;2023-03-01T16:36:15;15.90;;;10.35;;
58472;SDS011;44775;51.564;5.460;2023-03-01T16:38:42;11.10;;;7.20;;
58472;SDS011;44775;51.564;5.460;2023-03-01T16:41:12;13.52;;;8.73;;
58472;SDS011;44775;51.564;5.460;2023-03-01T16:43:39;16.48;;;9.32;;
58472;SDS011;44775;51.564;5.460;2023-03-01T16:46:12;12.20;;;8.55;;
58472;SDS011;44775;51.564;5.460;2023-03-01T16:48:40;11.55;;;7.43;;